createdAt,value
2022-11-05T00:01:57.533Z,26.48
2022-11-05T00:04:41.846Z,26.52
2022-11-05T00:07:35.988Z,24.65
2022-11-05T00:10:06.288Z,23.85
2022-11-05T00:12:51.784Z,24.13
2022-11-05T00:15:36.223Z,25.33
2022-11-05T00:18:02.013Z,23.40
2022-11-05T00:20:27.777Z,24.55
2022-11-05T00:23:23.883Z,25.08
2022-11-05T00:25:58.291Z,23.40
2022-11-05T00:28:25.528Z,23.75
2022-11-05T00:30:52.142Z,23.70
2022-11-05T00:33:18.235Z,23.73
2022-11-05T00:35:44.068Z,23.60
2022-11-05T00:38:10.059Z,22.83
2022-11-05T00:40:36.514Z,23.90
2022-11-05T00:43:21.308Z,21.33
2022-11-05T00:45:47.080Z,18.60
2022-11-05T00:48:31.132Z,19.13
2022-11-05T00:50:56.993Z,19.35
2022-11-05T00:53:22.890Z,18.48
2022-11-05T00:55:48.634Z,19.25
2022-11-05T00:58:17.407Z,18.83
2022-11-05T01:00:47.682Z,16.35
2022-11-05T01:03:16.493Z,18.70
2022-11-05T01:05:50.413Z,17.58
2022-11-05T01:08:18.169Z,16.35
2022-11-05T01:10:53.079Z,18.30
2022-11-05T01:13:22.227Z,16.40
2022-11-05T01:15:50.117Z,18.35
2022-11-05T01:18:16.799Z,17.85
2022-11-05T01:20:42.787Z,17.77
2022-11-05T01:23:13.525Z,17.98
2022-11-05T01:25:40.938Z,17.35
2022-11-05T01:28:08.751Z,18.20
2022-11-05T01:30:35.473Z,17.20
2022-11-05T01:33:02.698Z,18.15
2022-11-05T01:35:28.930Z,17.08
2022-11-05T01:37:54.720Z,17.55
2022-11-05T01:40:22.902Z,17.40
2022-11-05T01:42:49.039Z,17.92
2022-11-05T01:45:28.293Z,18.13
2022-11-05T01:48:02.518Z,18.25
2022-11-05T01:50:36.848Z,19.10
2022-11-05T01:53:14.812Z,17.50
2022-11-05T01:55:46.698Z,19.30
2022-11-05T01:58:18.500Z,20.73
2022-11-05T02:00:44.702Z,22.25
2022-11-05T02:03:14.487Z,20.65
2022-11-05T02:05:41.291Z,20.88
2022-11-05T02:08:15.878Z,21.80
2022-11-05T02:10:44.042Z,23.85
2022-11-05T02:13:10.104Z,24.15
2022-11-05T02:15:56.455Z,25.55
2022-11-05T02:18:34.119Z,24.85
2022-11-05T02:21:15.032Z,26.45
2022-11-05T02:23:54.142Z,24.48
2022-11-05T02:26:44.724Z,24.35
2022-11-05T02:29:32.620Z,24.40
2022-11-05T02:32:07.254Z,26.58
2022-11-05T02:35:05.216Z,24.97
2022-11-05T02:37:49.643Z,25.55
2022-11-05T02:40:18.473Z,25.10
2022-11-05T02:43:32.198Z,25.65
2022-11-05T02:46:31.802Z,25.65
2022-11-05T02:49:39.805Z,25.75
2022-11-05T02:52:23.172Z,25.90
2022-11-05T02:55:02.426Z,26.13
2022-11-05T02:57:29.919Z,28.15
2022-11-05T03:00:27.264Z,27.95
2022-11-05T03:02:53.711Z,24.98
2022-11-05T03:05:28.665Z,26.13
2022-11-05T03:08:02.516Z,26.15
2022-11-05T03:11:13.136Z,24.13
2022-11-05T03:14:18.340Z,25.75
2022-11-05T03:17:02.092Z,24.65
2022-11-05T03:19:34.139Z,24.50
2022-11-05T03:22:04.607Z,25.35
2022-11-05T03:24:36.764Z,24.65
2022-11-05T03:27:10.897Z,26.63
2022-11-05T03:29:42.334Z,25.92
2022-11-05T03:32:10.276Z,26.75
2022-11-05T03:34:44.799Z,25.77
2022-11-05T03:37:11.048Z,25.75
2022-11-05T03:39:43.841Z,26.88
2022-11-05T03:42:13.703Z,24.85
2022-11-05T03:44:45.566Z,27.00
2022-11-05T03:47:17.132Z,26.30
2022-11-05T03:50:09.256Z,27.85
2022-11-05T03:52:43.283Z,29.25
2022-11-05T03:55:09.902Z,29.30
2022-11-05T03:57:38.865Z,27.95
2022-11-05T04:00:32.432Z,28.25
2022-11-05T04:02:58.301Z,26.95
2022-11-05T04:05:24.250Z,28.27
2022-11-05T04:08:13.844Z,24.73
2022-11-05T04:11:18.632Z,26.33
2022-11-05T04:13:44.368Z,24.77
2022-11-05T04:16:28.672Z,23.13
2022-11-05T04:18:54.404Z,25.75
2022-11-05T04:21:38.907Z,24.73
2022-11-05T04:24:08.051Z,24.70
2022-11-05T04:26:39.140Z,25.90
2022-11-05T04:29:24.026Z,24.52
2022-11-05T04:31:50.117Z,24.45
2022-11-05T04:34:18.042Z,22.05
2022-11-05T04:36:45.918Z,24.45
2022-11-05T04:39:11.710Z,21.42
2022-11-05T04:41:37.618Z,21.58
2022-11-05T04:44:03.406Z,23.25
2022-11-05T04:46:29.181Z,23.40
2022-11-05T04:48:54.963Z,23.30
2022-11-05T04:51:20.826Z,23.02
2022-11-05T04:53:46.565Z,22.30
2022-11-05T04:56:19.735Z,23.13
2022-11-05T04:58:46.172Z,22.08
2022-11-05T05:01:14.117Z,21.88
2022-11-05T05:03:40.351Z,20.70
2022-11-05T05:06:06.445Z,21.33
2022-11-05T05:08:32.636Z,21.77
2022-11-05T05:11:04.289Z,25.67
2022-11-05T05:13:30.592Z,24.55
2022-11-05T05:15:56.878Z,21.95
2022-11-05T05:18:24.651Z,22.13
2022-11-05T05:21:08.902Z,22.60
2022-11-05T05:23:34.661Z,23.30
2022-11-05T05:26:00.414Z,24.05
2022-11-05T05:28:27.358Z,24.88
2022-11-05T05:30:58.779Z,26.23
2022-11-05T05:33:24.936Z,25.35
2022-11-05T05:35:50.682Z,26.40
2022-11-05T05:38:16.484Z,27.30
2022-11-05T05:40:42.365Z,26.80
2022-11-05T05:43:08.322Z,29.48
2022-11-05T05:45:35.562Z,27.10
2022-11-05T05:48:05.079Z,30.15
2022-11-05T05:50:30.852Z,35.65
2022-11-05T05:52:56.637Z,28.73
2022-11-05T05:55:22.416Z,33.33
2022-11-05T05:57:48.745Z,32.03
2022-11-05T06:00:14.713Z,30.58
2022-11-05T06:02:40.595Z,29.42
2022-11-05T06:05:07.128Z,31.08
2022-11-05T06:07:37.081Z,29.20
2022-11-05T06:10:05.053Z,27.90
2022-11-05T06:12:31.221Z,28.80
2022-11-05T06:14:57.002Z,28.25
2022-11-05T06:17:22.808Z,28.95
2022-11-05T06:19:48.576Z,26.85
2022-11-05T06:22:15.275Z,24.50
2022-11-05T06:24:43.761Z,25.35
2022-11-05T06:27:09.513Z,25.85
2022-11-05T06:29:35.281Z,26.40
2022-11-05T06:32:01.148Z,21.75
2022-11-05T06:34:26.899Z,21.90
2022-11-05T06:36:52.715Z,21.85
2022-11-05T06:39:18.510Z,21.85
2022-11-05T06:42:16.448Z,21.05
2022-11-05T06:44:30.172Z,20.60
2022-11-05T06:46:55.943Z,22.40
2022-11-05T06:49:23.936Z,23.10
2022-11-05T06:51:50.935Z,24.27
2022-11-05T06:54:16.696Z,22.08
2022-11-05T06:56:42.540Z,23.00
2022-11-05T06:59:08.390Z,24.15
2022-11-05T07:01:34.931Z,23.50
2022-11-05T07:04:01.076Z,20.25
2022-11-05T07:06:27.176Z,20.77
2022-11-05T07:08:53.380Z,22.42
2022-11-05T07:11:19.685Z,22.77
2022-11-05T07:13:45.492Z,23.05
2022-11-05T07:16:11.326Z,22.75
2022-11-05T07:18:37.144Z,20.83
2022-11-05T07:21:03.151Z,22.08
2022-11-05T07:23:28.997Z,22.85
2022-11-05T07:25:54.831Z,21.45
2022-11-05T07:28:20.682Z,21.77
2022-11-05T07:30:47.591Z,21.15
2022-11-05T07:33:14.156Z,23.00
2022-11-05T07:35:40.162Z,22.63
2022-11-05T07:38:06.047Z,21.48
2022-11-05T07:40:31.946Z,18.92
2022-11-05T07:43:00.071Z,20.02
2022-11-05T07:45:28.030Z,20.73
2022-11-05T07:47:56.018Z,20.50
2022-11-05T07:50:23.645Z,18.92
2022-11-05T07:52:49.860Z,21.50
2022-11-05T07:55:17.065Z,20.05
2022-11-05T07:57:48.238Z,18.83
2022-11-05T08:00:22.044Z,21.55
2022-11-05T08:02:59.690Z,19.58
2022-11-05T08:05:31.366Z,18.60
2022-11-05T08:07:59.460Z,18.95
2022-11-05T08:10:26.420Z,18.75
2022-11-05T08:12:56.100Z,18.58
2022-11-05T08:15:23.278Z,22.77
2022-11-05T08:17:49.662Z,20.88
2022-11-05T08:20:16.052Z,21.60
2022-11-05T08:22:43.860Z,22.30
2022-11-05T08:25:11.687Z,21.80
2022-11-05T08:27:38.125Z,21.33
2022-11-05T08:30:05.893Z,21.08
2022-11-05T08:32:31.800Z,20.67
2022-11-05T08:34:58.322Z,22.48
2022-11-05T08:37:24.131Z,22.77
2022-11-05T08:39:50.023Z,25.90
2022-11-05T08:42:15.987Z,23.60
2022-11-05T08:44:41.898Z,25.30
2022-11-05T08:47:07.684Z,25.77
2022-11-05T08:49:33.446Z,25.73
2022-11-05T08:51:59.363Z,24.63
2022-11-05T08:54:25.180Z,23.77
2022-11-05T08:56:50.995Z,24.30
2022-11-05T08:59:16.835Z,23.98
2022-11-05T09:01:42.759Z,23.75
2022-11-05T09:04:09.233Z,24.50
2022-11-05T09:06:35.088Z,24.33
2022-11-05T09:09:01.221Z,24.45
2022-11-05T09:11:49.582Z,24.02
2022-11-05T09:14:12.878Z,24.00
2022-11-05T09:16:38.731Z,23.60
2022-11-05T09:19:04.560Z,23.75
2022-11-05T09:21:31.053Z,22.98
2022-11-05T09:23:56.890Z,23.33
2022-11-05T09:26:22.699Z,23.98
2022-11-05T09:28:48.578Z,24.85
2022-11-05T09:31:14.476Z,22.40
2022-11-05T09:33:41.147Z,22.30
2022-11-05T09:36:07.910Z,23.02
2022-11-05T09:38:34.705Z,22.23
2022-11-05T09:41:04.097Z,22.73
2022-11-05T09:43:36.303Z,23.58
2022-11-05T09:46:08.676Z,23.05
2022-11-05T09:48:35.868Z,22.50
2022-11-05T09:51:04.430Z,21.45
2022-11-05T09:53:30.289Z,21.75
2022-11-05T09:55:58.910Z,20.75
2022-11-05T09:58:35.412Z,20.80
2022-11-05T10:01:04.135Z,20.52
2022-11-05T10:03:30.500Z,17.33
2022-11-05T10:06:06.931Z,17.77
2022-11-05T10:08:39.652Z,18.08
2022-11-05T10:11:12.111Z,18.50
2022-11-05T10:13:46.284Z,17.05
2022-11-05T10:16:26.686Z,18.83
2022-11-05T10:19:23.508Z,18.25
2022-11-05T10:22:06.074Z,17.90
2022-11-05T10:24:32.948Z,18.55
2022-11-05T10:26:59.363Z,20.45
2022-11-05T10:29:28.932Z,17.73
2022-11-05T10:31:56.494Z,15.02
2022-11-05T10:34:27.850Z,16.83
2022-11-05T10:36:53.831Z,15.88
2022-11-05T10:39:20.865Z,14.32
2022-11-05T10:42:05.286Z,13.02
2022-11-05T10:44:34.610Z,13.35
2022-11-05T10:47:15.845Z,14.57
2022-11-05T10:49:44.388Z,15.00
2022-11-05T10:52:35.898Z,12.88
2022-11-05T10:55:06.170Z,13.63
2022-11-05T10:57:35.976Z,13.77
2022-11-05T11:00:23.061Z,13.23
2022-11-05T11:02:53.143Z,12.15
2022-11-05T11:05:32.087Z,12.00
2022-11-05T11:08:00.050Z,12.07
2022-11-05T11:10:26.821Z,11.70
2022-11-05T11:12:54.327Z,12.15
2022-11-05T11:15:20.133Z,10.35
2022-11-05T11:17:46.699Z,8.75
2022-11-05T11:20:30.011Z,8.80
2022-11-05T11:23:11.675Z,8.27
2022-11-05T11:25:59.975Z,8.20
2022-11-05T11:28:37.325Z,7.22
2022-11-05T11:31:05.281Z,7.72
2022-11-05T11:33:33.261Z,7.50
2022-11-05T11:35:59.459Z,7.80
2022-11-05T11:38:29.853Z,6.20
2022-11-05T11:41:26.162Z,5.22
2022-11-05T11:46:23.759Z,5.10
2022-11-05T11:48:49.944Z,5.90
2022-11-05T11:51:30.371Z,6.13
2022-11-05T11:53:58.674Z,6.22
2022-11-05T11:56:24.637Z,5.75
2022-11-05T11:58:51.662Z,5.70
2022-11-05T12:01:39.415Z,6.25
2022-11-05T12:04:42.754Z,6.78
2022-11-05T12:07:20.725Z,5.88
2022-11-05T12:10:31.777Z,6.65
2022-11-05T12:13:26.396Z,6.85
2022-11-05T12:16:01.636Z,6.07
2022-11-05T12:18:33.711Z,5.20
2022-11-05T12:21:12.777Z,4.82
2022-11-05T12:24:22.014Z,3.92
2022-11-05T12:26:54.075Z,3.30
2022-11-05T12:29:35.868Z,3.30
2022-11-05T12:32:42.013Z,3.38
2022-11-05T12:35:13.929Z,3.78
2022-11-05T12:38:08.841Z,3.33
2022-11-05T12:40:53.325Z,3.20
2022-11-05T12:43:43.196Z,3.10
2022-11-05T12:46:18.410Z,3.10
2022-11-05T12:49:30.236Z,3.53
2022-11-05T12:52:04.842Z,3.58
2022-11-05T12:54:30.562Z,3.20
2022-11-05T12:57:00.857Z,3.88
2022-11-05T12:59:34.872Z,3.20
2022-11-05T13:02:13.305Z,3.78
2022-11-05T13:04:58.034Z,3.50
2022-11-05T13:07:30.055Z,3.15
2022-11-05T13:10:06.871Z,3.58
2022-11-05T13:12:37.431Z,3.28
2022-11-05T13:15:13.620Z,3.22
2022-11-05T13:17:49.546Z,3.25
2022-11-05T13:22:54.520Z,3.55
2022-11-05T13:25:21.493Z,4.00
2022-11-05T13:28:05.872Z,3.70
2022-11-05T13:30:40.813Z,4.03
2022-11-05T13:33:33.921Z,3.55
2022-11-05T13:36:22.702Z,3.25
2022-11-05T13:39:08.483Z,3.72
2022-11-05T13:41:37.201Z,4.18
2022-11-05T13:44:30.212Z,4.63
2022-11-05T13:47:29.524Z,5.72
2022-11-05T13:50:05.606Z,3.97
2022-11-05T13:52:44.527Z,3.38
2022-11-05T13:55:19.278Z,3.70
2022-11-05T13:58:31.383Z,4.10
2022-11-05T14:01:00.194Z,3.80
2022-11-05T14:03:26.412Z,3.25
2022-11-05T14:06:02.424Z,3.50
2022-11-05T14:08:29.375Z,3.33
2022-11-05T14:11:03.083Z,3.60
2022-11-05T14:13:41.736Z,3.28
2022-11-05T14:16:08.977Z,3.55
2022-11-05T14:18:41.714Z,4.53
2022-11-05T14:21:25.901Z,4.72
2022-11-05T14:23:54.521Z,3.45
2022-11-05T14:26:29.389Z,3.67
2022-11-05T14:29:04.493Z,3.28
2022-11-05T14:32:09.520Z,4.25
2022-11-05T14:34:56.397Z,4.60
2022-11-05T14:37:24.011Z,4.28
2022-11-05T14:39:51.521Z,3.75
2022-11-05T14:42:27.345Z,3.70
2022-11-05T14:45:18.373Z,3.13
2022-11-05T14:47:55.819Z,3.50
2022-11-05T14:50:27.063Z,3.03
2022-11-05T14:52:59.055Z,3.15
2022-11-05T14:55:33.514Z,3.72
2022-11-05T14:58:01.947Z,3.05
2022-11-05T15:00:27.661Z,2.85
2022-11-05T15:02:57.348Z,3.03
2022-11-05T15:05:37.119Z,2.90
2022-11-05T15:08:29.953Z,3.30
2022-11-05T15:11:29.438Z,2.80
2022-11-05T15:13:55.592Z,3.03
2022-11-05T15:16:26.018Z,2.78
2022-11-05T15:18:54.303Z,3.05
2022-11-05T15:21:21.283Z,3.30
2022-11-05T15:23:51.098Z,3.20
2022-11-05T15:26:37.338Z,3.20
2022-11-05T15:29:18.401Z,3.35
2022-11-05T15:31:45.644Z,2.95
2022-11-05T15:34:17.194Z,3.50
2022-11-05T15:36:59.549Z,3.00
2022-11-05T15:39:31.084Z,3.17
2022-11-05T15:41:58.760Z,3.42
2022-11-05T15:44:34.204Z,3.53
2022-11-05T15:47:12.433Z,4.32
2022-11-05T15:49:38.581Z,3.83
2022-11-05T15:52:04.465Z,3.35
2022-11-05T15:54:31.285Z,3.65
2022-11-05T15:56:59.053Z,3.53
2022-11-05T15:59:28.360Z,4.10
2022-11-05T16:02:16.145Z,3.70
2022-11-05T16:04:46.729Z,4.20
2022-11-05T16:07:12.778Z,4.40
2022-11-05T16:09:43.062Z,4.25
2022-11-05T16:12:25.829Z,4.25
2022-11-05T16:15:09.538Z,4.35
2022-11-05T16:17:47.295Z,4.32
2022-11-05T16:20:19.110Z,4.00
2022-11-05T16:22:47.050Z,4.13
2022-11-05T16:25:41.339Z,4.85
2022-11-05T16:28:25.667Z,4.65
2022-11-05T16:30:55.782Z,4.85
2022-11-05T16:33:22.903Z,4.43
2022-11-05T16:35:50.030Z,4.43
2022-11-05T16:38:17.161Z,5.15
2022-11-05T16:40:43.066Z,4.95
2022-11-05T16:43:18.133Z,4.07
2022-11-05T16:45:44.101Z,4.72
2022-11-05T16:48:12.131Z,4.15
2022-11-05T16:50:39.369Z,4.10
2022-11-05T16:53:05.321Z,3.90
2022-11-05T16:55:32.544Z,3.90
2022-11-05T16:57:59.586Z,3.70
2022-11-05T17:00:25.731Z,4.25
2022-11-05T17:02:53.699Z,3.63
2022-11-05T17:05:28.623Z,3.60
2022-11-05T17:07:58.512Z,4.20
2022-11-05T17:10:25.663Z,3.45
2022-11-05T17:12:52.782Z,3.60
2022-11-05T17:15:18.490Z,3.78
2022-11-05T17:17:44.595Z,4.55
2022-11-05T17:20:35.124Z,3.92
2022-11-05T17:23:06.293Z,4.07
2022-11-05T17:25:32.675Z,4.50
2022-11-05T17:27:58.769Z,3.80
2022-11-05T17:30:24.823Z,4.85
2022-11-05T17:32:51.006Z,5.20
2022-11-05T17:35:17.856Z,4.85
2022-11-05T17:37:44.026Z,6.05
2022-11-05T17:40:14.061Z,4.72
2022-11-05T17:42:40.225Z,5.95
2022-11-05T17:45:06.874Z,5.30
2022-11-05T17:47:32.885Z,5.00
2022-11-05T17:49:58.794Z,5.90
2022-11-05T17:52:24.611Z,5.22
2022-11-05T17:54:50.538Z,5.53
2022-11-05T17:57:16.470Z,5.78
2022-11-05T17:59:42.322Z,6.03
2022-11-05T18:02:11.957Z,18.17
2022-11-05T18:04:38.733Z,6.20
2022-11-05T18:07:08.420Z,6.53
2022-11-05T18:09:34.555Z,7.28
2022-11-05T18:12:00.619Z,6.50
2022-11-05T18:14:30.753Z,6.43
2022-11-05T18:16:59.476Z,6.20
2022-11-05T18:19:26.943Z,6.03
2022-11-05T18:21:53.939Z,5.97
2022-11-05T18:24:20.273Z,5.93
2022-11-05T18:26:46.210Z,6.25
2022-11-05T18:29:12.114Z,6.90
2022-11-05T18:31:39.320Z,6.60
2022-11-05T18:34:05.637Z,6.88
2022-11-05T18:36:32.281Z,7.38
2022-11-05T18:39:00.607Z,7.10
2022-11-05T18:41:26.820Z,7.00
2022-11-05T18:43:59.122Z,6.60
2022-11-05T18:46:55.898Z,7.32
2022-11-05T18:49:12.271Z,6.90
2022-11-05T18:51:38.195Z,7.55
2022-11-05T18:54:04.303Z,7.70
2022-11-05T18:56:32.901Z,7.90
2022-11-05T18:59:15.068Z,7.68
2022-11-05T19:01:45.315Z,7.70
2022-11-05T19:04:11.649Z,8.13
2022-11-05T19:06:38.235Z,8.90
2022-11-05T19:09:06.018Z,8.05
2022-11-05T19:11:32.403Z,8.85
2022-11-05T19:13:58.665Z,8.57
2022-11-05T19:16:27.259Z,9.15
2022-11-05T19:18:54.053Z,9.05
2022-11-05T19:21:22.661Z,8.98
2022-11-05T19:23:49.413Z,8.20
2022-11-05T19:26:20.057Z,8.10
2022-11-05T19:28:48.264Z,8.50
2022-11-05T19:31:17.088Z,8.65
2022-11-05T19:33:44.326Z,9.40
2022-11-05T19:36:11.361Z,8.18
2022-11-05T19:38:37.655Z,9.50
2022-11-05T19:41:09.173Z,9.32
2022-11-05T19:43:36.144Z,8.55
2022-11-05T19:46:06.476Z,8.93
2022-11-05T19:48:32.998Z,9.55
2022-11-05T19:50:59.010Z,8.85
2022-11-05T19:53:25.300Z,8.68
2022-11-05T19:55:51.187Z,8.32
2022-11-05T19:58:17.122Z,8.60
2022-11-05T20:00:43.444Z,9.63
2022-11-05T20:03:11.430Z,10.50
2022-11-05T20:05:37.643Z,10.65
2022-11-05T20:08:03.836Z,8.85
2022-11-05T20:10:29.762Z,9.25
2022-11-05T20:12:55.762Z,9.48
2022-11-05T20:23:03.141Z,9.20
2022-11-05T20:25:29.027Z,9.48
2022-11-05T20:27:56.535Z,8.77
2022-11-05T20:30:22.552Z,9.98
2022-11-05T20:32:54.504Z,9.82
2022-11-05T20:35:20.830Z,9.32
2022-11-05T20:37:51.171Z,9.60
2022-11-05T20:40:19.743Z,9.25
2022-11-05T20:42:45.604Z,9.80
2022-11-05T20:45:11.454Z,9.20
2022-11-05T20:47:37.297Z,9.57
2022-11-05T20:50:04.187Z,10.10
2022-11-05T20:52:30.150Z,10.55
2022-11-05T20:54:56.136Z,10.18
2022-11-05T20:57:22.221Z,10.73
2022-11-05T20:59:48.094Z,9.82
2022-11-05T21:02:14.173Z,10.20
2022-11-05T21:04:40.406Z,10.02
2022-11-05T21:07:06.327Z,9.90
2022-11-05T21:09:32.500Z,10.32
2022-11-05T21:12:10.612Z,10.30
2022-11-05T21:14:42.169Z,10.98
2022-11-05T21:17:10.936Z,10.63
2022-11-05T21:19:37.230Z,10.55
2022-11-05T21:22:05.000Z,10.48
2022-11-05T21:24:32.253Z,10.60
2022-11-05T21:26:58.521Z,11.90
2022-11-05T21:29:24.543Z,11.50
2022-11-05T21:31:50.245Z,11.63
2022-11-05T21:34:17.344Z,10.63
2022-11-05T21:36:43.616Z,10.95
2022-11-05T21:39:13.456Z,11.68
2022-11-05T21:41:39.905Z,12.10
2022-11-05T21:44:05.855Z,10.98
2022-11-05T21:46:31.799Z,10.88
2022-11-05T21:48:58.147Z,11.48
2022-11-05T21:51:42.949Z,11.70
2022-11-05T21:54:29.353Z,10.98
2022-11-05T21:57:13.773Z,12.95
2022-11-05T21:59:50.955Z,12.10
2022-11-05T22:02:21.241Z,11.50
2022-11-05T22:04:52.883Z,12.20
2022-11-05T22:07:24.076Z,13.32
2022-11-05T22:09:50.208Z,12.75
2022-11-05T22:12:16.608Z,12.07
2022-11-05T22:14:42.923Z,12.88
2022-11-05T22:17:09.938Z,12.35
2022-11-05T22:19:36.006Z,12.98
2022-11-05T22:22:04.153Z,12.93
2022-11-05T22:24:33.001Z,12.50
2022-11-05T22:27:00.505Z,13.35
2022-11-05T22:29:27.197Z,12.73
2022-11-05T22:31:53.092Z,12.77
2022-11-05T22:34:19.446Z,12.88
2022-11-05T22:36:45.388Z,13.55
2022-11-05T22:39:12.435Z,11.57
2022-11-05T22:41:38.780Z,13.23
2022-11-05T22:44:04.849Z,13.65
2022-11-05T22:46:32.578Z,13.13
2022-11-05T22:48:59.587Z,13.73
2022-11-05T22:51:28.761Z,13.15
2022-11-05T22:53:54.725Z,14.73
2022-11-05T22:56:22.941Z,14.35
2022-11-05T22:58:49.770Z,13.48
2022-11-05T23:01:19.191Z,13.65
2022-11-05T23:03:46.650Z,14.48
2022-11-05T23:06:42.113Z,14.27
2022-11-05T23:09:46.300Z,14.48
2022-11-05T23:12:30.865Z,14.95
2022-11-05T23:14:58.300Z,14.82
2022-11-05T23:17:43.604Z,14.40
2022-11-05T23:20:36.724Z,13.35
2022-11-05T23:23:21.186Z,12.88
2022-11-05T23:25:47.255Z,13.15
2022-11-05T23:28:13.727Z,12.57
2022-11-05T23:31:02.330Z,12.77
2022-11-05T23:33:33.037Z,13.18
2022-11-05T23:36:17.510Z,12.93
2022-11-05T23:38:43.397Z,12.63
2022-11-05T23:41:27.727Z,12.48
2022-11-05T23:44:12.379Z,11.32
2022-11-05T23:46:56.801Z,11.23
2022-11-05T23:49:22.727Z,11.40
2022-11-05T23:51:48.888Z,11.20
2022-11-05T23:54:14.827Z,11.82
2022-11-05T23:56:40.831Z,10.77
2022-11-05T23:59:06.793Z,11.20
